sensor_id;sensor_type;location;lat;lon;timestamp;temperature;humidity
4399;DHT22;2213;49.720;7.296;2024-03-23T00:53:53;7.40;99.90
4399;DHT22;2213;49.720;7.296;2024-03-23T00:56:21;7.40;99.90
4399;DHT22;2213;49.720;7.296;2024-03-23T00:58:48;7.40;99.90
4399;DHT22;2213;49.720;7.296;2024-03-23T01:01:17;7.30;99.90
4399;DHT22;2213;49.720;7.296;2024-03-23T01:03:47;7.30;99.90
4399;DHT22;2213;49.720;7.296;2024-03-23T01:06:15;7.30;99.90
4399;DHT22;2213;49.720;7.296;2024-03-23T01:08:41;7.40;99.90
4399;DHT22;2213;49.720;7.296;2024-03-23T01:11:09;7.40;99.90
4399;DHT22;2213;49.720;7.296;2024-03-23T01:13:35;7.40;99.90
4399;DHT22;2213;49.720;7.296;2024-03-23T01:16:03;7.40;99.90
4399;DHT22;2213;49.720;7.296;2024-03-23T01:18:32;7.40;99.90
4399;DHT22;2213;49.720;7.296;2024-03-23T01:21:03;7.40;99.90
4399;DHT22;2213;49.720;7.296;2024-03-23T01:23:30;7.40;99.90
4399;DHT22;2213;49.720;7.296;2024-03-23T01:25:58;7.50;99.90
4399;DHT22;2213;49.720;7.296;2024-03-23T01:28:24;7.50;99.90
4399;DHT22;2213;49.720;7.296;2024-03-23T01:30:52;7.50;99.90
4399;DHT22;2213;49.720;7.296;2024-03-23T01:33:19;7.50;99.90
4399;DHT22;2213;49.720;7.296;2024-03-23T01:35:48;7.50;99.90
4399;DHT22;2213;49.720;7.296;2024-03-23T01:38:15;7.50;99.90
4399;DHT22;2213;49.720;7.296;2024-03-23T01:40:42;7.50;99.90
4399;DHT22;2213;49.720;7.296;2024-03-23T01:43:09;7.60;99.90
4399;DHT22;2213;49.720;7.296;2024-03-23T01:45:37;7.60;99.90
4399;DHT22;2213;49.720;7.296;2024-03-23T01:48:04;7.60;99.90
4399;DHT22;2213;49.720;7.296;2024-03-23T01:50:33;7.70;99.90
4399;DHT22;2213;49.720;7.296;2024-03-23T01:53:02;7.70;99.90
4399;DHT22;2213;49.720;7.296;2024-03-23T01:55:32;7.60;99.90
4399;DHT22;2213;49.720;7.296;2024-03-23T01:57:59;7.60;99.90
4399;DHT22;2213;49.720;7.296;2024-03-23T02:00:27;7.70;99.90
4399;DHT22;2213;49.720;7.296;2024-03-23T02:02:54;7.70;99.90
4399;DHT22;2213;49.720;7.296;2024-03-23T02:05:22;7.70;99.90
4399;DHT22;2213;49.720;7.296;2024-03-23T02:07:49;7.80;99.90
4399;DHT22;2213;49.720;7.296;2024-03-23T02:10:19;7.70;99.90
4399;DHT22;2213;49.720;7.296;2024-03-23T02:12:46;7.70;99.90
4399;DHT22;2213;49.720;7.296;2024-03-23T02:15:13;7.70;99.90
4399;DHT22;2213;49.720;7.296;2024-03-23T02:17:40;7.80;99.90
4399;DHT22;2213;49.720;7.296;2024-03-23T02:20:10;7.70;99.90
4399;DHT22;2213;49.720;7.296;2024-03-23T02:22:38;7.80;99.90
4399;DHT22;2213;49.720;7.296;2024-03-23T02:25:08;7.70;99.90
4399;DHT22;2213;49.720;7.296;2024-03-23T02:27:35;7.70;99.90
4399;DHT22;2213;49.720;7.296;2024-03-23T02:30:05;7.80;99.90
4399;DHT22;2213;49.720;7.296;2024-03-23T02:32:33;7.80;99.90
4399;DHT22;2213;49.720;7.296;2024-03-23T02:35:00;7.80;99.90
4399;DHT22;2213;49.720;7.296;2024-03-23T02:37:27;7.90;99.90
4399;DHT22;2213;49.720;7.296;2024-03-23T02:39:54;7.90;99.90
4399;DHT22;2213;49.720;7.296;2024-03-23T02:42:22;7.80;99.90
4399;DHT22;2213;49.720;7.296;2024-03-23T02:44:50;7.90;99.90
4399;DHT22;2213;49.720;7.296;2024-03-23T02:47:16;7.90;99.90
4399;DHT22;2213;49.720;7.296;2024-03-23T02:49:44;7.90;99.90
4399;DHT22;2213;49.720;7.296;2024-03-23T02:52:10;7.90;99.90
4399;DHT22;2213;49.720;7.296;2024-03-23T02:54:38;8.00;99.90
4399;DHT22;2213;49.720;7.296;2024-03-23T02:57:04;7.90;99.90
4399;DHT22;2213;49.720;7.296;2024-03-23T02:59:33;8.00;99.90
4399;DHT22;2213;49.720;7.296;2024-03-23T03:02:00;8.00;99.90
4399;DHT22;2213;49.720;7.296;2024-03-23T03:04:27;8.10;99.90
4399;DHT22;2213;49.720;7.296;2024-03-23T03:06:54;8.10;99.90
4399;DHT22;2213;49.720;7.296;2024-03-23T03:09:21;8.00;99.90
4399;DHT22;2213;49.720;7.296;2024-03-23T03:11:48;8.10;99.90
4399;DHT22;2213;49.720;7.296;2024-03-23T03:14:16;8.10;99.90
4399;DHT22;2213;49.720;7.296;2024-03-23T03:16:44;8.20;99.90
4399;DHT22;2213;49.720;7.296;2024-03-23T03:19:11;8.20;99.90
4399;DHT22;2213;49.720;7.296;2024-03-23T03:21:38;8.20;99.90
4399;DHT22;2213;49.720;7.296;2024-03-23T03:24:06;8.30;99.90
4399;DHT22;2213;49.720;7.296;2024-03-23T03:26:33;8.40;99.90
4399;DHT22;2213;49.720;7.296;2024-03-23T03:29:00;8.60;99.90
4399;DHT22;2213;49.720;7.296;2024-03-23T03:31:28;8.60;99.90
4399;DHT22;2213;49.720;7.296;2024-03-23T03:33:57;8.80;99.90
4399;DHT22;2213;49.720;7.296;2024-03-23T03:36:23;8.90;99.90
4399;DHT22;2213;49.720;7.296;2024-03-23T03:38:51;8.80;99.90
4399;DHT22;2213;49.720;7.296;2024-03-23T03:41:18;8.80;99.90
4399;DHT22;2213;49.720;7.296;2024-03-23T03:43:45;8.70;99.90
4399;DHT22;2213;49.720;7.296;2024-03-23T03:46:12;8.70;99.90
4399;DHT22;2213;49.720;7.296;2024-03-23T03:48:39;8.60;99.90
4399;DHT22;2213;49.720;7.296;2024-03-23T03:51:07;8.40;99.90
4399;DHT22;2213;49.720;7.296;2024-03-23T03:53:35;8.30;99.90
4399;DHT22;2213;49.720;7.296;2024-03-23T03:56:02;8.20;99.90
4399;DHT22;2213;49.720;7.296;2024-03-23T03:58:30;8.20;99.90
4399;DHT22;2213;49.720;7.296;2024-03-23T04:00:56;8.10;99.90
4399;DHT22;2213;49.720;7.296;2024-03-23T04:03:24;8.10;99.90
4399;DHT22;2213;49.720;7.296;2024-03-23T04:05:51;8.00;99.90
4399;DHT22;2213;49.720;7.296;2024-03-23T04:08:21;8.10;99.90
4399;DHT22;2213;49.720;7.296;2024-03-23T04:10:48;8.00;99.90
4399;DHT22;2213;49.720;7.296;2024-03-23T04:13:15;8.00;99.90
4399;DHT22;2213;49.720;7.296;2024-03-23T04:15:42;8.00;99.90
4399;DHT22;2213;49.720;7.296;2024-03-23T04:18:10;7.90;99.90
4399;DHT22;2213;49.720;7.296;2024-03-23T04:20:37;7.90;99.90
4399;DHT22;2213;49.720;7.296;2024-03-23T04:23:04;7.90;99.90
4399;DHT22;2213;49.720;7.296;2024-03-23T04:25:32;7.90;99.90
4399;DHT22;2213;49.720;7.296;2024-03-23T04:28:00;8.00;99.90
4399;DHT22;2213;49.720;7.296;2024-03-23T04:30:26;8.00;99.90
4399;DHT22;2213;49.720;7.296;2024-03-23T04:32:55;8.00;99.90
4399;DHT22;2213;49.720;7.296;2024-03-23T04:35:23;8.00;99.90
4399;DHT22;2213;49.720;7.296;2024-03-23T04:37:51;8.00;99.90
4399;DHT22;2213;49.720;7.296;2024-03-23T04:40:19;7.90;99.90
4399;DHT22;2213;49.720;7.296;2024-03-23T04:42:51;7.90;99.90
4399;DHT22;2213;49.720;7.296;2024-03-23T04:45:19;7.80;99.90
4399;DHT22;2213;49.720;7.296;2024-03-23T04:47:46;7.70;99.90
4399;DHT22;2213;49.720;7.296;2024-03-23T04:50:14;7.60;99.90
4399;DHT22;2213;49.720;7.296;2024-03-23T04:52:42;7.70;99.90
4399;DHT22;2213;49.720;7.296;2024-03-23T04:55:09;7.70;99.90
4399;DHT22;2213;49.720;7.296;2024-03-23T04:57:37;7.60;99.90
4399;DHT22;2213;49.720;7.296;2024-03-23T05:00:07;7.40;99.90
4399;DHT22;2213;49.720;7.296;2024-03-23T05:02:44;7.30;99.90
4399;DHT22;2213;49.720;7.296;2024-03-23T05:05:11;7.50;99.90
4399;DHT22;2213;49.720;7.296;2024-03-23T05:07:39;7.60;99.90
4399;DHT22;2213;49.720;7.296;2024-03-23T05:10:09;7.50;99.90
4399;DHT22;2213;49.720;7.296;2024-03-23T05:12:37;7.50;99.90
4399;DHT22;2213;49.720;7.296;2024-03-23T05:15:04;7.50;99.90
4399;DHT22;2213;49.720;7.296;2024-03-23T05:17:33;7.50;99.90
4399;DHT22;2213;49.720;7.296;2024-03-23T05:20:00;7.50;99.90
4399;DHT22;2213;49.720;7.296;2024-03-23T05:22:28;7.40;99.90
4399;DHT22;2213;49.720;7.296;2024-03-23T05:24:55;7.30;99.90
4399;DHT22;2213;49.720;7.296;2024-03-23T05:27:22;7.30;99.90
4399;DHT22;2213;49.720;7.296;2024-03-23T05:29:49;7.30;99.90
4399;DHT22;2213;49.720;7.296;2024-03-23T05:32:18;7.30;99.90
4399;DHT22;2213;49.720;7.296;2024-03-23T05:34:44;7.30;99.90
4399;DHT22;2213;49.720;7.296;2024-03-23T05:37:12;7.30;99.90
4399;DHT22;2213;49.720;7.296;2024-03-23T05:39:39;7.20;99.90
4399;DHT22;2213;49.720;7.296;2024-03-23T05:42:07;7.30;99.90
4399;DHT22;2213;49.720;7.296;2024-03-23T05:44:34;7.30;99.90
4399;DHT22;2213;49.720;7.296;2024-03-23T05:47:01;7.30;99.90
4399;DHT22;2213;49.720;7.296;2024-03-23T05:49:30;7.20;99.90
4399;DHT22;2213;49.720;7.296;2024-03-23T05:51:57;7.10;99.90
4399;DHT22;2213;49.720;7.296;2024-03-23T05:54:24;7.10;99.90
4399;DHT22;2213;49.720;7.296;2024-03-23T05:56:54;7.10;99.90
4399;DHT22;2213;49.720;7.296;2024-03-23T05:59:21;7.00;99.90
4399;DHT22;2213;49.720;7.296;2024-03-23T06:01:49;6.80;99.90
4399;DHT22;2213;49.720;7.296;2024-03-23T06:04:15;6.90;99.90
4399;DHT22;2213;49.720;7.296;2024-03-23T06:06:45;7.00;99.90
4399;DHT22;2213;49.720;7.296;2024-03-23T06:09:11;7.00;99.90
4399;DHT22;2213;49.720;7.296;2024-03-23T06:11:39;7.10;99.90
4399;DHT22;2213;49.720;7.296;2024-03-23T06:14:06;7.10;99.90
4399;DHT22;2213;49.720;7.296;2024-03-23T06:16:33;6.90;99.90
4399;DHT22;2213;49.720;7.296;2024-03-23T06:19:00;7.00;99.90
4399;DHT22;2213;49.720;7.296;2024-03-23T06:21:30;7.00;99.90
4399;DHT22;2213;49.720;7.296;2024-03-23T06:23:58;7.10;99.90
4399;DHT22;2213;49.720;7.296;2024-03-23T06:26:26;7.10;99.90
4399;DHT22;2213;49.720;7.296;2024-03-23T06:28:52;7.10;99.90
4399;DHT22;2213;49.720;7.296;2024-03-23T06:31:22;7.10;99.90
4399;DHT22;2213;49.720;7.296;2024-03-23T06:33:48;7.10;99.90
4399;DHT22;2213;49.720;7.296;2024-03-23T06:36:16;7.00;99.90
4399;DHT22;2213;49.720;7.296;2024-03-23T06:38:45;7.10;99.90
4399;DHT22;2213;49.720;7.296;2024-03-23T06:41:15;7.10;99.90
4399;DHT22;2213;49.720;7.296;2024-03-23T06:43:41;7.10;99.90
4399;DHT22;2213;49.720;7.296;2024-03-23T06:46:10;7.10;99.90
4399;DHT22;2213;49.720;7.296;2024-03-23T06:48:37;7.10;99.90
4399;DHT22;2213;49.720;7.296;2024-03-23T06:51:05;7.10;99.90
4399;DHT22;2213;49.720;7.296;2024-03-23T06:53:32;6.90;99.90
4399;DHT22;2213;49.720;7.296;2024-03-23T06:56:00;6.80;99.90
4399;DHT22;2213;49.720;7.296;2024-03-23T06:58:28;6.70;99.90
4399;DHT22;2213;49.720;7.296;2024-03-23T07:00:56;6.80;99.90
4399;DHT22;2213;49.720;7.296;2024-03-23T07:03:22;6.90;99.90
4399;DHT22;2213;49.720;7.296;2024-03-23T07:05:52;6.90;99.90
4399;DHT22;2213;49.720;7.296;2024-03-23T07:08:18;6.80;99.90
4399;DHT22;2213;49.720;7.296;2024-03-23T07:10:48;6.70;99.90
4399;DHT22;2213;49.720;7.296;2024-03-23T07:13:15;6.80;99.90
4399;DHT22;2213;49.720;7.296;2024-03-23T07:15:51;6.70;99.90
4399;DHT22;2213;49.720;7.296;2024-03-23T07:18:18;6.90;99.90
4399;DHT22;2213;49.720;7.296;2024-03-23T07:20:53;6.90;99.90
4399;DHT22;2213;49.720;7.296;2024-03-23T07:23:20;6.80;99.90
4399;DHT22;2213;49.720;7.296;2024-03-23T07:25:56;7.00;99.90
4399;DHT22;2213;49.720;7.296;2024-03-23T07:28:23;7.10;99.90
4399;DHT22;2213;49.720;7.296;2024-03-23T07:31:03;7.00;99.90
4399;DHT22;2213;49.720;7.296;2024-03-23T07:33:30;7.00;99.90
4399;DHT22;2213;49.720;7.296;2024-03-23T07:35:59;7.00;99.90
4399;DHT22;2213;49.720;7.296;2024-03-23T07:38:27;6.90;99.90
4399;DHT22;2213;49.720;7.296;2024-03-23T07:41:05;7.00;99.90
4399;DHT22;2213;49.720;7.296;2024-03-23T07:43:34;7.10;99.90
4399;DHT22;2213;49.720;7.296;2024-03-23T07:46:04;6.90;99.90
4399;DHT22;2213;49.720;7.296;2024-03-23T07:48:31;7.10;99.90
4399;DHT22;2213;49.720;7.296;2024-03-23T07:51:00;7.20;99.90
4399;DHT22;2213;49.720;7.296;2024-03-23T07:53:28;7.20;99.90
4399;DHT22;2213;49.720;7.296;2024-03-23T07:55:57;7.30;99.90
4399;DHT22;2213;49.720;7.296;2024-03-23T07:58:28;7.10;99.90
4399;DHT22;2213;49.720;7.296;2024-03-23T08:01:01;7.20;99.90
4399;DHT22;2213;49.720;7.296;2024-03-23T08:03:34;7.00;99.90
4399;DHT22;2213;49.720;7.296;2024-03-23T08:06:12;7.10;99.90
4399;DHT22;2213;49.720;7.296;2024-03-23T08:08:41;7.20;99.90
4399;DHT22;2213;49.720;7.296;2024-03-23T08:11:09;7.10;99.90
4399;DHT22;2213;49.720;7.296;2024-03-23T08:13:39;7.10;99.90
4399;DHT22;2213;49.720;7.296;2024-03-23T08:16:08;7.00;99.90
4399;DHT22;2213;49.720;7.296;2024-03-23T08:18:35;7.00;99.90
4399;DHT22;2213;49.720;7.296;2024-03-23T08:21:03;7.10;99.90
4399;DHT22;2213;49.720;7.296;2024-03-23T08:23:33;7.10;99.90
4399;DHT22;2213;49.720;7.296;2024-03-23T08:26:02;7.20;99.90
4399;DHT22;2213;49.720;7.296;2024-03-23T08:28:31;7.30;99.90
4399;DHT22;2213;49.720;7.296;2024-03-23T08:31:01;7.40;99.90
4399;DHT22;2213;49.720;7.296;2024-03-23T08:33:31;7.20;99.90
4399;DHT22;2213;49.720;7.296;2024-03-23T08:35:59;7.20;99.90
4399;DHT22;2213;49.720;7.296;2024-03-23T08:38:28;7.10;99.90
4399;DHT22;2213;49.720;7.296;2024-03-23T08:40:58;7.30;99.90
4399;DHT22;2213;49.720;7.296;2024-03-23T08:43:29;7.40;99.90
4399;DHT22;2213;49.720;7.296;2024-03-23T08:46:03;7.40;99.90
4399;DHT22;2213;49.720;7.296;2024-03-23T08:48:34;7.30;99.90
4399;DHT22;2213;49.720;7.296;2024-03-23T08:51:02;7.20;99.90
4399;DHT22;2213;49.720;7.296;2024-03-23T08:53:30;7.30;99.90
4399;DHT22;2213;49.720;7.296;2024-03-23T08:55:58;7.20;99.90
4399;DHT22;2213;49.720;7.296;2024-03-23T08:58:28;7.30;99.90
4399;DHT22;2213;49.720;7.296;2024-03-23T09:00:57;7.40;99.90
4399;DHT22;2213;49.720;7.296;2024-03-23T09:03:32;7.50;99.90
4399;DHT22;2213;49.720;7.296;2024-03-23T09:06:01;7.50;99.90
4399;DHT22;2213;49.720;7.296;2024-03-23T09:08:29;7.50;99.90
4399;DHT22;2213;49.720;7.296;2024-03-23T09:10:55;7.60;99.90
4399;DHT22;2213;49.720;7.296;2024-03-23T09:13:23;7.70;99.90
4399;DHT22;2213;49.720;7.296;2024-03-23T09:15:51;7.70;99.90
4399;DHT22;2213;49.720;7.296;2024-03-23T09:18:22;7.80;99.90
4399;DHT22;2213;49.720;7.296;2024-03-23T09:20:50;8.00;99.90
4399;DHT22;2213;49.720;7.296;2024-03-23T09:23:19;8.20;99.90
4399;DHT22;2213;49.720;7.296;2024-03-23T09:25:46;8.20;99.90
4399;DHT22;2213;49.720;7.296;2024-03-23T09:28:13;8.10;99.90
4399;DHT22;2213;49.720;7.296;2024-03-23T09:30:40;7.90;99.90
4399;DHT22;2213;49.720;7.296;2024-03-23T09:33:09;8.10;99.90
4399;DHT22;2213;49.720;7.296;2024-03-23T09:35:37;8.10;99.90
4399;DHT22;2213;49.720;7.296;2024-03-23T09:38:06;8.30;99.90
4399;DHT22;2213;49.720;7.296;2024-03-23T09:40:33;8.20;99.90
4399;DHT22;2213;49.720;7.296;2024-03-23T09:43:01;8.20;99.90
4399;DHT22;2213;49.720;7.296;2024-03-23T09:45:28;8.20;99.90
4399;DHT22;2213;49.720;7.296;2024-03-23T09:47:56;8.30;99.90
4399;DHT22;2213;49.720;7.296;2024-03-23T09:50:23;8.40;99.90
4399;DHT22;2213;49.720;7.296;2024-03-23T09:52:51;8.40;99.90
4399;DHT22;2213;49.720;7.296;2024-03-23T09:55:19;8.40;99.90
4399;DHT22;2213;49.720;7.296;2024-03-23T09:57:46;8.40;99.90
4399;DHT22;2213;49.720;7.296;2024-03-23T10:00:14;8.60;99.90
4399;DHT22;2213;49.720;7.296;2024-03-23T10:02:42;8.60;99.90
4399;DHT22;2213;49.720;7.296;2024-03-23T10:05:20;8.70;99.90
4399;DHT22;2213;49.720;7.296;2024-03-23T10:07:49;8.90;99.90
4399;DHT22;2213;49.720;7.296;2024-03-23T10:10:16;8.90;99.90
4399;DHT22;2213;49.720;7.296;2024-03-23T10:12:46;8.80;99.90
4399;DHT22;2213;49.720;7.296;2024-03-23T10:15:19;8.80;99.90
4399;DHT22;2213;49.720;7.296;2024-03-23T10:17:48;8.90;99.90
4399;DHT22;2213;49.720;7.296;2024-03-23T10:20:19;9.00;99.90
4399;DHT22;2213;49.720;7.296;2024-03-23T10:22:48;9.00;99.90
4399;DHT22;2213;49.720;7.296;2024-03-23T10:25:15;8.90;99.90
4399;DHT22;2213;49.720;7.296;2024-03-23T10:27:43;8.90;99.90
4399;DHT22;2213;49.720;7.296;2024-03-23T10:30:13;9.00;99.90
4399;DHT22;2213;49.720;7.296;2024-03-23T10:32:41;8.90;99.90
4399;DHT22;2213;49.720;7.296;2024-03-23T10:35:17;9.00;99.90
4399;DHT22;2213;49.720;7.296;2024-03-23T10:37:48;9.00;99.90
4399;DHT22;2213;49.720;7.296;2024-03-23T10:40:15;9.10;99.90
4399;DHT22;2213;49.720;7.296;2024-03-23T10:42:44;9.10;99.90
4399;DHT22;2213;49.720;7.296;2024-03-23T10:45:12;9.00;98.90
4399;DHT22;2213;49.720;7.296;2024-03-23T10:47:40;9.00;99.20
4399;DHT22;2213;49.720;7.296;2024-03-23T10:50:09;9.10;99.60
4399;DHT22;2213;49.720;7.296;2024-03-23T10:52:37;9.20;99.90
4399;DHT22;2213;49.720;7.296;2024-03-23T10:55:06;9.30;99.90
4399;DHT22;2213;49.720;7.296;2024-03-23T10:57:41;9.20;99.30
4399;DHT22;2213;49.720;7.296;2024-03-23T11:00:13;9.30;99.90
4399;DHT22;2213;49.720;7.296;2024-03-23T11:02:42;9.30;99.50
4399;DHT22;2213;49.720;7.296;2024-03-23T11:05:30;9.20;99.10
4399;DHT22;2213;49.720;7.296;2024-03-23T11:07:58;9.40;99.80
4399;DHT22;2213;49.720;7.296;2024-03-23T11:10:25;9.40;99.80
4399;DHT22;2213;49.720;7.296;2024-03-23T11:12:55;9.50;99.10
4399;DHT22;2213;49.720;7.296;2024-03-23T11:15:23;9.50;98.30
4399;DHT22;2213;49.720;7.296;2024-03-23T11:18:04;9.20;97.70
4399;DHT22;2213;49.720;7.296;2024-03-23T11:20:34;9.30;98.00
4399;DHT22;2213;49.720;7.296;2024-03-23T11:23:03;9.40;97.90
4399;DHT22;2213;49.720;7.296;2024-03-23T11:25:30;9.40;98.40
4399;DHT22;2213;49.720;7.296;2024-03-23T11:28:10;9.40;98.90
4399;DHT22;2213;49.720;7.296;2024-03-23T11:30:38;9.30;99.30
4399;DHT22;2213;49.720;7.296;2024-03-23T11:33:06;9.30;99.90
4399;DHT22;2213;49.720;7.296;2024-03-23T11:35:36;9.20;99.90
4399;DHT22;2213;49.720;7.296;2024-03-23T11:38:07;9.20;99.90
4399;DHT22;2213;49.720;7.296;2024-03-23T11:40:35;9.30;99.90
4399;DHT22;2213;49.720;7.296;2024-03-23T11:43:04;9.20;99.90
4399;DHT22;2213;49.720;7.296;2024-03-23T11:45:36;8.90;99.90
4399;DHT22;2213;49.720;7.296;2024-03-23T11:48:07;8.50;99.90
4399;DHT22;2213;49.720;7.296;2024-03-23T11:50:37;7.90;99.90
4399;DHT22;2213;49.720;7.296;2024-03-23T11:53:07;7.50;99.90
4399;DHT22;2213;49.720;7.296;2024-03-23T11:55:48;7.40;99.90
4399;DHT22;2213;49.720;7.296;2024-03-23T11:58:19;7.20;99.90
4399;DHT22;2213;49.720;7.296;2024-03-23T12:00:57;7.40;99.90
4399;DHT22;2213;49.720;7.296;2024-03-23T12:03:28;7.40;99.90
4399;DHT22;2213;49.720;7.296;2024-03-23T12:05:57;7.50;99.90
4399;DHT22;2213;49.720;7.296;2024-03-23T12:08:30;7.60;99.90
4399;DHT22;2213;49.720;7.296;2024-03-23T12:11:06;7.60;99.90
4399;DHT22;2213;49.720;7.296;2024-03-23T12:13:35;7.60;99.90
4399;DHT22;2213;49.720;7.296;2024-03-23T12:16:13;7.70;99.90
4399;DHT22;2213;49.720;7.296;2024-03-23T12:18:44;7.70;99.90
4399;DHT22;2213;49.720;7.296;2024-03-23T12:21:13;7.40;99.90
4399;DHT22;2213;49.720;7.296;2024-03-23T12:23:41;7.60;99.90
4399;DHT22;2213;49.720;7.296;2024-03-23T12:26:08;7.70;99.90
4399;DHT22;2213;49.720;7.296;2024-03-23T12:28:36;7.60;99.90
4399;DHT22;2213;49.720;7.296;2024-03-23T12:31:03;7.70;99.90
4399;DHT22;2213;49.720;7.296;2024-03-23T12:33:33;7.50;99.90
4399;DHT22;2213;49.720;7.296;2024-03-23T12:36:00;7.70;99.90
4399;DHT22;2213;49.720;7.296;2024-03-23T12:38:27;7.60;99.90
4399;DHT22;2213;49.720;7.296;2024-03-23T12:40:54;7.70;99.90
4399;DHT22;2213;49.720;7.296;2024-03-23T12:43:21;7.80;99.90
4399;DHT22;2213;49.720;7.296;2024-03-23T12:45:48;7.90;99.90
4399;DHT22;2213;49.720;7.296;2024-03-23T12:48:16;8.10;99.90
4399;DHT22;2213;49.720;7.296;2024-03-23T12:50:44;8.00;99.90
4399;DHT22;2213;49.720;7.296;2024-03-23T12:53:12;8.30;99.90
4399;DHT22;2213;49.720;7.296;2024-03-23T12:55:38;8.40;99.90
4399;DHT22;2213;49.720;7.296;2024-03-23T12:58:06;8.50;99.90
4399;DHT22;2213;49.720;7.296;2024-03-23T13:00:33;8.50;99.90
4399;DHT22;2213;49.720;7.296;2024-03-23T13:03:00;8.70;99.90
4399;DHT22;2213;49.720;7.296;2024-03-23T13:05:27;8.80;99.90
4399;DHT22;2213;49.720;7.296;2024-03-23T13:07:56;8.80;99.90
4399;DHT22;2213;49.720;7.296;2024-03-23T13:10:22;8.90;99.90
4399;DHT22;2213;49.720;7.296;2024-03-23T13:12:50;9.00;99.90
4399;DHT22;2213;49.720;7.296;2024-03-23T13:15:16;9.10;99.90
4399;DHT22;2213;49.720;7.296;2024-03-23T13:17:45;8.90;99.90
4399;DHT22;2213;49.720;7.296;2024-03-23T13:20:12;9.00;99.90
4399;DHT22;2213;49.720;7.296;2024-03-23T13:22:40;8.90;99.90
4399;DHT22;2213;49.720;7.296;2024-03-23T13:25:09;8.80;99.90
4399;DHT22;2213;49.720;7.296;2024-03-23T13:27:36;8.70;99.90
4399;DHT22;2213;49.720;7.296;2024-03-23T13:30:04;8.70;99.90
4399;DHT22;2213;49.720;7.296;2024-03-23T13:32:32;8.80;99.90
4399;DHT22;2213;49.720;7.296;2024-03-23T13:34:58;8.70;99.90
4399;DHT22;2213;49.720;7.296;2024-03-23T13:37:26;8.60;99.90
4399;DHT22;2213;49.720;7.296;2024-03-23T13:39:53;8.10;99.90
4399;DHT22;2213;49.720;7.296;2024-03-23T13:42:21;8.10;99.90
4399;DHT22;2213;49.720;7.296;2024-03-23T13:44:51;8.00;99.90
4399;DHT22;2213;49.720;7.296;2024-03-23T13:47:19;7.90;99.90
4399;DHT22;2213;49.720;7.296;2024-03-23T13:49:50;7.90;99.90
4399;DHT22;2213;49.720;7.296;2024-03-23T13:52:21;7.50;99.90
4399;DHT22;2213;49.720;7.296;2024-03-23T13:54:50;7.50;99.90
4399;DHT22;2213;49.720;7.296;2024-03-23T13:57:18;7.60;99.90
4399;DHT22;2213;49.720;7.296;2024-03-23T13:59:48;7.80;99.90
4399;DHT22;2213;49.720;7.296;2024-03-23T14:02:16;7.70;99.90
4399;DHT22;2213;49.720;7.296;2024-03-23T14:04:42;8.10;99.90
4399;DHT22;2213;49.720;7.296;2024-03-23T14:07:09;8.30;99.90
4399;DHT22;2213;49.720;7.296;2024-03-23T14:09:36;8.40;99.90
4399;DHT22;2213;49.720;7.296;2024-03-23T14:12:04;8.80;99.90
4399;DHT22;2213;49.720;7.296;2024-03-23T14:14:32;9.00;99.90
4399;DHT22;2213;49.720;7.296;2024-03-23T14:17:01;9.20;99.90
4399;DHT22;2213;49.720;7.296;2024-03-23T14:19:27;9.50;99.90
4399;DHT22;2213;49.720;7.296;2024-03-23T14:21:55;9.00;99.90
4399;DHT22;2213;49.720;7.296;2024-03-23T14:24:21;9.00;99.90
4399;DHT22;2213;49.720;7.296;2024-03-23T14:26:50;8.90;99.90
4399;DHT22;2213;49.720;7.296;2024-03-23T14:29:16;9.00;99.90
4399;DHT22;2213;49.720;7.296;2024-03-23T14:31:45;8.90;99.90
4399;DHT22;2213;49.720;7.296;2024-03-23T14:34:13;9.00;99.90
4399;DHT22;2213;49.720;7.296;2024-03-23T14:36:40;9.00;99.90
4399;DHT22;2213;49.720;7.296;2024-03-23T14:39:07;9.00;99.90
4399;DHT22;2213;49.720;7.296;2024-03-23T14:41:35;9.00;99.90
4399;DHT22;2213;49.720;7.296;2024-03-23T14:44:01;9.10;99.90
4399;DHT22;2213;49.720;7.296;2024-03-23T14:46:28;9.30;99.90
4399;DHT22;2213;49.720;7.296;2024-03-23T14:48:55;9.40;99.90
4399;DHT22;2213;49.720;7.296;2024-03-23T14:51:24;9.40;99.90
4399;DHT22;2213;49.720;7.296;2024-03-23T14:53:50;9.40;99.90
4399;DHT22;2213;49.720;7.296;2024-03-23T14:56:18;9.30;99.90
4399;DHT22;2213;49.720;7.296;2024-03-23T14:58:44;9.40;99.90
4399;DHT22;2213;49.720;7.296;2024-03-23T15:01:13;9.50;99.90
4399;DHT22;2213;49.720;7.296;2024-03-23T15:03:40;9.60;99.90
4399;DHT22;2213;49.720;7.296;2024-03-23T15:06:09;9.50;99.90
4399;DHT22;2213;49.720;7.296;2024-03-23T15:08:37;9.50;99.90
4399;DHT22;2213;49.720;7.296;2024-03-23T15:11:06;9.40;99.90
4399;DHT22;2213;49.720;7.296;2024-03-23T15:13:33;9.20;99.90
4399;DHT22;2213;49.720;7.296;2024-03-23T15:16:01;9.10;99.90
4399;DHT22;2213;49.720;7.296;2024-03-23T15:18:29;8.90;99.90
4399;DHT22;2213;49.720;7.296;2024-03-23T15:20:58;9.00;99.90
4399;DHT22;2213;49.720;7.296;2024-03-23T15:23:28;8.90;99.90
4399;DHT22;2213;49.720;7.296;2024-03-23T15:25:58;8.50;99.90
4399;DHT22;2213;49.720;7.296;2024-03-23T15:28:27;8.50;99.90
4399;DHT22;2213;49.720;7.296;2024-03-23T15:31:03;8.50;99.90
4399;DHT22;2213;49.720;7.296;2024-03-23T15:33:30;8.40;99.90
4399;DHT22;2213;49.720;7.296;2024-03-23T15:35:58;8.10;99.90
4399;DHT22;2213;49.720;7.296;2024-03-23T15:38:25;7.90;99.90
4399;DHT22;2213;49.720;7.296;2024-03-23T15:40:53;7.70;99.90
4399;DHT22;2213;49.720;7.296;2024-03-23T15:43:21;7.70;99.90
4399;DHT22;2213;49.720;7.296;2024-03-23T15:45:54;7.80;99.90
4399;DHT22;2213;49.720;7.296;2024-03-23T15:48:21;7.70;99.90
4399;DHT22;2213;49.720;7.296;2024-03-23T15:50:52;7.60;99.90
4399;DHT22;2213;49.720;7.296;2024-03-23T15:53:19;7.40;99.90
4399;DHT22;2213;49.720;7.296;2024-03-23T15:55:53;7.30;99.90
4399;DHT22;2213;49.720;7.296;2024-03-23T15:58:22;7.60;99.90
4399;DHT22;2213;49.720;7.296;2024-03-23T16:00:54;7.50;99.90
4399;DHT22;2213;49.720;7.296;2024-03-23T16:03:21;7.50;99.90
4399;DHT22;2213;49.720;7.296;2024-03-23T16:05:52;7.40;99.90
4399;DHT22;2213;49.720;7.296;2024-03-23T16:08:19;7.40;99.90
4399;DHT22;2213;49.720;7.296;2024-03-23T16:10:47;7.30;99.90
4399;DHT22;2213;49.720;7.296;2024-03-23T16:13:14;7.20;99.90
4399;DHT22;2213;49.720;7.296;2024-03-23T16:15:43;7.10;99.90
4399;DHT22;2213;49.720;7.296;2024-03-23T16:18:10;7.20;99.90
4399;DHT22;2213;49.720;7.296;2024-03-23T16:20:38;7.30;99.90
4399;DHT22;2213;49.720;7.296;2024-03-23T16:23:04;7.30;99.90
4399;DHT22;2213;49.720;7.296;2024-03-23T16:25:32;7.30;99.90
4399;DHT22;2213;49.720;7.296;2024-03-23T16:27:59;7.30;99.90
4399;DHT22;2213;49.720;7.296;2024-03-23T16:30:26;7.20;99.90
4399;DHT22;2213;49.720;7.296;2024-03-23T16:32:55;7.20;99.90
4399;DHT22;2213;49.720;7.296;2024-03-23T16:35:24;7.30;99.90
4399;DHT22;2213;49.720;7.296;2024-03-23T16:37:50;7.20;99.90
4399;DHT22;2213;49.720;7.296;2024-03-23T16:40:18;7.30;99.90
4399;DHT22;2213;49.720;7.296;2024-03-23T16:42:44;7.30;99.90
4399;DHT22;2213;49.720;7.296;2024-03-23T16:45:12;7.10;99.90
4399;DHT22;2213;49.720;7.296;2024-03-23T16:47:39;7.10;99.90
4399;DHT22;2213;49.720;7.296;2024-03-23T16:50:09;7.10;99.90
4399;DHT22;2213;49.720;7.296;2024-03-23T16:52:36;7.10;99.90
4399;DHT22;2213;49.720;7.296;2024-03-23T16:55:05;6.70;99.90
4399;DHT22;2213;49.720;7.296;2024-03-23T16:57:32;6.90;99.90
4399;DHT22;2213;49.720;7.296;2024-03-23T17:00:00;6.90;99.90
4399;DHT22;2213;49.720;7.296;2024-03-23T17:02:26;7.00;99.90
4399;DHT22;2213;49.720;7.296;2024-03-23T17:04:55;7.00;99.90
4399;DHT22;2213;49.720;7.296;2024-03-23T17:07:23;6.90;99.90
4399;DHT22;2213;49.720;7.296;2024-03-23T17:09:50;6.80;99.90
4399;DHT22;2213;49.720;7.296;2024-03-23T17:12:18;6.90;99.90
4399;DHT22;2213;49.720;7.296;2024-03-23T17:14:46;7.00;99.90
4399;DHT22;2213;49.720;7.296;2024-03-23T17:17:14;6.90;99.90